createdAt,value
2019-02-11T00:00:10.031Z,18.07
2019-02-11T00:02:41.992Z,18.02
2019-02-11T00:05:12.176Z,19.15
2019-02-11T00:07:42.447Z,17.98
2019-02-11T00:10:12.730Z,17.98
2019-02-11T00:12:43.545Z,18.80
2019-02-11T00:15:13.808Z,17.57
2019-02-11T00:17:45.141Z,18.55
2019-02-11T00:20:15.298Z,18.98
2019-02-11T00:22:45.434Z,19.30
2019-02-11T00:25:15.648Z,18.82
2019-02-11T00:27:46.052Z,19.15
2019-02-11T00:30:16.311Z,18.75
2019-02-11T00:32:46.627Z,21.35
2019-02-11T00:35:17.679Z,20.88
2019-02-11T00:37:48.099Z,19.75
2019-02-11T00:40:18.326Z,20.08
2019-02-11T00:42:48.560Z,21.17
2019-02-11T00:45:18.863Z,20.92
2019-02-11T00:47:49.119Z,22.10
2019-02-11T00:50:19.469Z,20.72
2019-02-11T00:52:49.710Z,22.60
2019-02-11T00:55:21.138Z,21.77
2019-02-11T00:57:51.427Z,22.87
2019-02-11T01:00:21.707Z,22.50
2019-02-11T01:02:52.215Z,23.12
2019-02-11T01:05:22.748Z,22.55
2019-02-11T01:07:53.052Z,23.05
2019-02-11T01:10:23.264Z,23.30
2019-02-11T01:12:53.559Z,22.55
2019-02-11T01:15:23.790Z,22.70
2019-02-11T01:17:54.168Z,22.87
2019-02-11T01:20:24.517Z,21.70
2019-02-11T01:22:54.718Z,22.87
2019-02-11T01:25:24.942Z,23.00
2019-02-11T01:27:55.162Z,23.05
2019-02-11T01:30:25.415Z,21.20
2019-02-11T01:32:55.678Z,23.05
2019-02-11T01:35:26.959Z,22.67
2019-02-11T01:37:57.283Z,21.27
2019-02-11T01:40:27.625Z,21.17
2019-02-11T01:42:57.963Z,14.55
2019-02-11T01:45:28.398Z,16.80
2019-02-11T01:47:58.712Z,16.50
2019-02-11T01:50:28.953Z,12.53
2019-02-11T01:52:59.461Z,14.28
2019-02-11T01:55:29.696Z,14.43
2019-02-11T01:58:00.247Z,15.43
2019-02-11T02:00:30.635Z,14.45
2019-02-11T02:03:00.966Z,11.05
2019-02-11T02:05:33.150Z,11.35
2019-02-11T02:08:03.460Z,13.75
2019-02-11T02:10:33.842Z,11.88
2019-02-11T02:13:04.270Z,12.68
2019-02-11T02:15:34.497Z,11.25
2019-02-11T02:18:04.878Z,9.88
2019-02-11T02:20:35.226Z,9.43
2019-02-11T02:23:06.516Z,7.90
2019-02-11T02:25:36.847Z,7.65
2019-02-11T02:28:08.441Z,7.67
2019-02-11T02:30:38.800Z,8.60
2019-02-11T02:33:09.100Z,7.42
2019-02-11T02:35:40.324Z,8.50
2019-02-11T02:38:10.739Z,8.10
2019-02-11T02:40:40.871Z,7.80
2019-02-11T02:43:11.215Z,8.08
2019-02-11T02:45:41.423Z,8.08
2019-02-11T02:48:11.830Z,8.65
2019-02-11T02:50:41.993Z,9.00
2019-02-11T02:53:12.263Z,8.95
2019-02-11T02:55:42.702Z,9.35
2019-02-11T02:58:13.134Z,9.90
2019-02-11T03:00:43.505Z,10.10
2019-02-11T03:03:13.699Z,9.95
2019-02-11T03:05:44.028Z,9.08
2019-02-11T03:08:14.286Z,7.37
2019-02-11T03:10:44.631Z,8.80
2019-02-11T03:13:15.003Z,8.38
2019-02-11T03:15:45.264Z,8.10
2019-02-11T03:18:15.715Z,7.83
2019-02-11T03:20:45.905Z,6.50
2019-02-11T03:23:16.096Z,7.25
2019-02-11T03:25:46.386Z,7.33
2019-02-11T03:28:16.633Z,6.47
2019-02-11T03:30:46.852Z,6.80
2019-02-11T03:33:17.112Z,7.22
2019-02-11T03:35:48.192Z,6.37
2019-02-11T03:38:18.514Z,7.30
2019-02-11T03:40:48.779Z,7.20
2019-02-11T03:43:19.073Z,7.70
2019-02-11T03:45:49.279Z,8.30
2019-02-11T03:48:19.643Z,7.42
2019-02-11T03:50:49.955Z,7.92
2019-02-11T03:53:20.318Z,9.18
2019-02-11T03:55:50.942Z,9.28
2019-02-11T03:58:21.267Z,9.45
2019-02-11T04:00:51.692Z,9.05
2019-02-11T04:03:21.885Z,8.35
2019-02-11T04:05:52.388Z,7.45
2019-02-11T04:08:22.879Z,6.72
2019-02-11T04:10:53.080Z,7.20
2019-02-11T04:13:23.487Z,6.92
2019-02-11T04:15:53.807Z,6.25
2019-02-11T04:18:24.263Z,6.65
2019-02-11T04:20:54.435Z,4.58
2019-02-11T04:23:25.010Z,5.60
2019-02-11T04:25:55.234Z,4.83
2019-02-11T04:28:25.512Z,5.70
2019-02-11T04:30:57.032Z,5.58
2019-02-11T04:33:27.371Z,5.42
2019-02-11T04:35:58.896Z,5.50
2019-02-11T04:38:29.173Z,6.10
2019-02-11T04:40:59.441Z,5.60
2019-02-11T04:43:29.560Z,5.70
2019-02-11T04:45:59.795Z,5.60
2019-02-11T04:48:29.978Z,5.65
2019-02-11T04:51:00.258Z,5.25
2019-02-11T04:53:30.549Z,5.37
2019-02-11T04:56:00.739Z,5.80
2019-02-11T04:58:31.062Z,5.72
2019-02-11T05:01:01.479Z,5.10
2019-02-11T05:03:32.234Z,5.08
2019-02-11T05:06:02.593Z,4.40
2019-02-11T05:08:33.695Z,5.30
2019-02-11T05:11:03.922Z,5.65
2019-02-11T05:13:34.351Z,4.50
2019-02-11T05:16:06.544Z,5.00
2019-02-11T05:18:36.927Z,5.72
2019-02-11T05:21:07.468Z,5.90
2019-02-11T05:23:37.998Z,5.33
2019-02-11T05:26:08.319Z,5.72
2019-02-11T05:28:38.554Z,5.70
2019-02-11T05:31:08.807Z,5.90
2019-02-11T05:33:39.084Z,5.58
2019-02-11T05:36:10.207Z,4.50
2019-02-11T05:38:40.464Z,5.78
2019-02-11T05:41:10.753Z,5.25
2019-02-11T05:43:41.175Z,6.08
2019-02-11T05:46:11.367Z,6.00
2019-02-11T05:48:41.670Z,5.62
2019-02-11T05:51:11.936Z,6.15
2019-02-11T05:53:42.230Z,5.33
2019-02-11T05:56:12.423Z,6.20
2019-02-11T05:58:42.604Z,5.67
2019-02-11T06:01:12.905Z,5.87
2019-02-11T06:03:43.506Z,6.08
2019-02-11T06:06:14.504Z,5.25
2019-02-11T06:08:44.863Z,5.72
2019-02-11T06:11:15.128Z,5.90
2019-02-11T06:13:45.463Z,5.78
2019-02-11T06:16:17.088Z,6.00
2019-02-11T06:18:47.380Z,6.67
2019-02-11T06:21:17.535Z,6.70
2019-02-11T06:23:47.854Z,6.85
2019-02-11T06:26:18.243Z,6.50
2019-02-11T06:28:48.542Z,5.35
2019-02-11T06:31:18.946Z,6.22
2019-02-11T06:33:49.177Z,6.37
2019-02-11T06:36:20.273Z,6.42
2019-02-11T06:38:50.455Z,6.80
2019-02-11T06:41:20.799Z,6.60
2019-02-11T06:43:51.100Z,6.40
2019-02-11T06:46:21.294Z,6.53
2019-02-11T06:48:51.582Z,5.60
2019-02-11T06:51:21.851Z,6.53
2019-02-11T06:53:52.052Z,6.17
2019-02-11T06:56:22.350Z,5.70
2019-02-11T06:58:52.849Z,6.00
2019-02-11T07:01:22.956Z,5.62
2019-02-11T07:03:53.144Z,6.00
2019-02-11T07:06:23.419Z,5.30
2019-02-11T07:08:53.701Z,5.28
2019-02-11T07:11:23.867Z,5.03
2019-02-11T07:13:54.300Z,5.60
2019-02-11T07:16:24.643Z,5.62
2019-02-11T07:18:54.974Z,5.50
2019-02-11T07:21:25.223Z,5.05
2019-02-11T07:23:55.496Z,5.00
2019-02-11T07:26:25.899Z,4.55
2019-02-11T07:28:56.068Z,4.97
2019-02-11T07:31:26.540Z,4.83
2019-02-11T07:33:56.818Z,5.05
2019-02-11T07:36:28.021Z,4.55
2019-02-11T07:38:58.610Z,4.30
2019-02-11T07:41:30.421Z,3.50
2019-02-11T07:44:02.529Z,2.60
2019-02-11T07:46:34.472Z,3.72
2019-02-11T07:49:04.721Z,4.05
2019-02-11T07:51:42.187Z,4.40
2019-02-11T07:54:07.033Z,3.60
2019-02-11T07:56:37.222Z,3.42
2019-02-11T07:59:07.374Z,3.55
2019-02-11T08:01:37.775Z,4.70
2019-02-11T08:04:07.971Z,3.37
2019-02-11T08:06:38.212Z,3.25
2019-02-11T08:09:10.069Z,3.67
2019-02-11T08:11:40.251Z,3.30
2019-02-11T08:14:10.702Z,3.25
2019-02-11T08:16:40.952Z,3.08
2019-02-11T08:19:11.274Z,3.60
2019-02-11T08:21:41.597Z,3.25
2019-02-11T08:24:11.786Z,3.33
2019-02-11T08:26:41.983Z,3.02
2019-02-11T08:29:12.230Z,3.27
2019-02-11T08:31:42.659Z,3.20
2019-02-11T08:34:12.947Z,3.20
2019-02-11T08:36:44.115Z,3.40
2019-02-11T08:39:14.487Z,2.52
2019-02-11T08:41:45.643Z,2.65
2019-02-11T08:44:16.069Z,3.25
2019-02-11T08:46:48.192Z,3.70
2019-02-11T08:49:18.726Z,4.45
2019-02-11T08:51:48.943Z,3.30
2019-02-11T08:54:19.098Z,2.98
2019-02-11T08:56:49.386Z,3.00
2019-02-11T08:59:19.559Z,2.72
2019-02-11T09:01:49.608Z,2.95
2019-02-11T09:04:19.846Z,3.52
2019-02-11T09:06:49.939Z,3.12
2019-02-11T09:09:20.170Z,2.25
2019-02-11T09:11:50.363Z,2.87
2019-02-11T09:14:20.722Z,3.20
2019-02-11T09:16:50.938Z,3.10
2019-02-11T09:19:21.146Z,3.20
2019-02-11T09:21:51.260Z,3.20
2019-02-11T09:24:21.447Z,3.15
2019-02-11T09:26:51.634Z,3.37
2019-02-11T09:29:21.855Z,3.10
2019-02-11T09:31:52.023Z,3.17
2019-02-11T09:34:22.201Z,3.75
2019-02-11T09:36:52.375Z,2.85
2019-02-11T09:39:22.571Z,2.55
2019-02-11T09:41:52.751Z,3.22
2019-02-11T09:44:29.486Z,4.10
2019-02-11T09:46:55.246Z,3.47
2019-02-11T09:49:25.522Z,3.60
2019-02-11T09:51:55.793Z,3.22
2019-02-11T09:54:25.959Z,3.22
2019-02-11T09:56:56.171Z,3.45
2019-02-11T09:59:26.315Z,3.80
2019-02-11T10:01:56.568Z,3.02
2019-02-11T10:04:27.084Z,3.35
2019-02-11T10:06:57.194Z,3.42
2019-02-11T10:09:27.385Z,2.62
2019-02-11T10:11:57.550Z,3.22
2019-02-11T10:14:27.803Z,3.10
2019-02-11T10:16:57.980Z,3.10
2019-02-11T10:19:28.151Z,3.08
2019-02-11T10:21:58.368Z,3.55
2019-02-11T10:24:28.548Z,3.20
2019-02-11T10:26:58.954Z,3.50
2019-02-11T10:29:29.132Z,3.95
2019-02-11T10:31:59.394Z,2.65
2019-02-11T10:34:29.511Z,4.40
2019-02-11T10:37:00.729Z,4.95
2019-02-11T10:39:30.987Z,3.65
2019-02-11T10:42:01.161Z,3.33
2019-02-11T10:44:31.525Z,2.85
2019-02-11T10:47:01.638Z,3.67
2019-02-11T10:49:31.810Z,4.58
2019-02-11T10:52:01.986Z,3.75
2019-02-11T10:54:32.372Z,4.62
2019-02-11T10:57:02.662Z,5.00
2019-02-11T10:59:33.082Z,4.33
2019-02-11T11:02:03.653Z,2.70
2019-02-11T11:04:33.911Z,3.55
2019-02-11T11:07:04.106Z,4.67
2019-02-11T11:09:34.288Z,4.33
2019-02-11T11:12:04.634Z,4.60
2019-02-11T11:14:34.906Z,4.65
2019-02-11T11:17:07.107Z,5.78
2019-02-11T11:19:37.320Z,4.78
2019-02-11T11:22:07.987Z,3.87
2019-02-11T11:24:38.225Z,4.22
2019-02-11T11:27:08.421Z,4.62
2019-02-11T11:29:39.631Z,5.60
2019-02-11T11:32:10.175Z,5.10
2019-02-11T11:34:40.396Z,4.10
2019-02-11T11:37:11.462Z,4.17
2019-02-11T11:39:41.695Z,2.85
2019-02-11T11:42:11.937Z,3.35
2019-02-11T11:44:42.117Z,5.45
2019-02-11T11:47:12.432Z,3.92
2019-02-11T11:49:42.609Z,3.80
2019-02-11T11:52:12.915Z,2.62
2019-02-11T11:54:44.143Z,3.40
2019-02-11T11:57:14.464Z,2.58
2019-02-11T11:59:44.631Z,2.67
2019-02-11T12:02:16.342Z,2.65
2019-02-11T12:04:47.015Z,2.33
2019-02-11T12:07:17.215Z,3.00
2019-02-11T12:09:47.949Z,2.60
2019-02-11T12:12:18.391Z,3.37
2019-02-11T12:14:48.729Z,3.40
2019-02-11T12:17:18.894Z,3.52
2019-02-11T12:19:49.045Z,3.58
2019-02-11T12:22:19.167Z,3.12
2019-02-11T12:24:49.382Z,3.08
2019-02-11T12:27:20.767Z,3.02
2019-02-11T12:29:50.978Z,2.92
2019-02-11T12:32:21.327Z,3.55
2019-02-11T12:34:51.670Z,3.20
2019-02-11T12:37:22.764Z,2.90
2019-02-11T12:39:53.260Z,3.37
2019-02-11T12:42:23.522Z,3.10
2019-02-11T12:44:53.810Z,3.70
2019-02-11T12:47:24.022Z,3.77
2019-02-11T12:49:54.263Z,4.03
2019-02-11T12:52:24.471Z,3.10
2019-02-11T12:54:54.721Z,4.45
2019-02-11T12:57:24.927Z,4.03
2019-02-11T12:59:55.144Z,4.40
2019-02-11T13:02:25.318Z,4.28
2019-02-11T13:04:55.514Z,5.25
2019-02-11T13:07:25.715Z,4.28
2019-02-11T13:09:56.133Z,4.67
2019-02-11T13:12:26.363Z,6.40
2019-02-11T13:14:56.641Z,6.83
2019-02-11T13:17:33.722Z,6.50
2019-02-11T13:20:08.378Z,7.15
2019-02-11T13:22:30.473Z,7.22
2019-02-11T13:25:00.679Z,6.70
2019-02-11T13:27:32.171Z,7.45
2019-02-11T13:30:02.379Z,6.85
2019-02-11T13:32:34.102Z,7.22
2019-02-11T13:35:05.009Z,6.95
2019-02-11T13:37:36.165Z,7.78
2019-02-11T13:40:08.515Z,8.80
2019-02-11T13:42:38.834Z,8.48
2019-02-11T13:45:12.204Z,6.95
2019-02-11T13:47:53.400Z,10.35
2019-02-11T13:50:19.933Z,9.83
2019-02-11T13:52:50.819Z,8.28
2019-02-11T13:55:21.256Z,9.50
2019-02-11T13:57:52.154Z,10.78
2019-02-11T14:00:25.791Z,11.33
2019-02-11T14:03:00.830Z,11.00
2019-02-11T14:05:31.700Z,10.43
2019-02-11T14:08:02.869Z,9.35
2019-02-11T14:10:33.145Z,10.93
2019-02-11T14:13:04.253Z,10.75
2019-02-11T14:15:34.537Z,10.38
2019-02-11T14:18:14.030Z,10.40
2019-02-11T14:20:41.653Z,10.23
2019-02-11T14:23:12.017Z,6.95
2019-02-11T14:25:46.409Z,9.28
2019-02-11T14:28:14.298Z,9.78
2019-02-11T14:30:44.617Z,9.50
2019-02-11T14:33:15.182Z,11.20
2019-02-11T14:35:46.232Z,9.60
2019-02-11T14:38:17.867Z,12.13
2019-02-11T14:40:48.316Z,11.65
2019-02-11T14:43:18.759Z,12.50
2019-02-11T14:45:49.741Z,11.60
2019-02-11T14:48:27.877Z,12.68
2019-02-11T14:50:52.378Z,13.48
2019-02-11T14:53:23.149Z,13.28
2019-02-11T14:55:53.589Z,13.53
2019-02-11T14:58:23.812Z,13.10
2019-02-11T15:00:54.004Z,13.48
2019-02-11T15:03:24.191Z,14.18
2019-02-11T15:05:54.547Z,13.50
2019-02-11T15:08:24.846Z,14.23
2019-02-11T15:10:55.047Z,14.30
2019-02-11T15:13:25.284Z,13.83
2019-02-11T15:15:55.555Z,13.53
2019-02-11T15:18:33.958Z,12.55
2019-02-11T15:20:57.554Z,10.23
2019-02-11T15:23:27.807Z,10.98
2019-02-11T15:25:58.038Z,10.40
2019-02-11T15:28:28.199Z,11.08
2019-02-11T15:30:58.483Z,11.08
2019-02-11T15:33:28.705Z,12.70
2019-02-11T15:35:58.826Z,12.45
2019-02-11T15:38:29.791Z,13.90
2019-02-11T15:41:00.834Z,15.78
2019-02-11T15:43:31.024Z,14.60
2019-02-11T15:46:01.126Z,15.60
2019-02-11T15:48:31.501Z,15.32
2019-02-11T15:51:01.754Z,16.27
2019-02-11T15:53:32.327Z,17.10
2019-02-11T15:56:07.721Z,20.20
2019-02-11T15:58:34.372Z,24.95
2019-02-11T16:01:04.675Z,17.60
2019-02-11T16:03:34.923Z,16.60
2019-02-11T16:06:10.112Z,15.90
2019-02-11T16:08:37.210Z,15.32
2019-02-11T16:11:07.358Z,16.02
2019-02-11T16:13:37.568Z,15.70
2019-02-11T16:16:07.851Z,16.48
2019-02-11T16:18:37.922Z,15.25
2019-02-11T16:21:08.201Z,15.30
2019-02-11T16:23:38.382Z,15.48
2019-02-11T16:26:08.662Z,13.98
2019-02-11T16:28:38.799Z,14.13
2019-02-11T16:31:09.122Z,13.68
2019-02-11T16:33:39.364Z,13.93
2019-02-11T16:36:09.595Z,13.93
2019-02-11T16:38:40.607Z,14.35
2019-02-11T16:41:10.661Z,15.65
2019-02-11T16:43:40.955Z,13.45
2019-02-11T16:46:11.628Z,15.63
2019-02-11T16:48:41.936Z,13.03
2019-02-11T16:51:12.432Z,12.75
2019-02-11T16:53:42.631Z,11.83
2019-02-11T16:56:12.775Z,12.18
2019-02-11T16:58:42.979Z,12.10
2019-02-11T17:01:13.463Z,11.90
2019-02-11T17:03:43.888Z,10.70
2019-02-11T17:06:14.115Z,10.30
2019-02-11T17:08:44.433Z,9.33
2019-02-11T17:11:14.659Z,9.83
2019-02-11T17:13:44.913Z,9.38
2019-02-11T17:16:15.042Z,9.75
2019-02-11T17:18:45.203Z,9.78
2019-02-11T17:21:15.323Z,9.15
2019-02-11T17:23:45.375Z,9.40
2019-02-11T17:26:15.612Z,9.28
2019-02-11T17:28:45.932Z,9.80
2019-02-11T17:31:16.421Z,10.65
2019-02-11T17:33:46.677Z,11.15
2019-02-11T17:36:16.950Z,12.13
2019-02-11T17:38:48.023Z,13.15
2019-02-11T17:41:18.159Z,12.20
2019-02-11T17:43:48.362Z,10.95
2019-02-11T17:46:18.570Z,12.60
2019-02-11T17:48:48.864Z,12.60
2019-02-11T17:51:19.099Z,9.80
2019-02-11T17:53:49.360Z,10.20
2019-02-11T17:56:19.639Z,8.98
2019-02-11T17:58:49.760Z,8.45
2019-02-11T18:01:20.077Z,8.85
2019-02-11T18:03:50.347Z,6.00
2019-02-11T18:06:20.543Z,7.15
2019-02-11T18:08:50.699Z,8.00
2019-02-11T18:11:20.988Z,7.25
2019-02-11T18:13:51.267Z,7.58
2019-02-11T18:16:22.195Z,8.60
2019-02-11T18:18:52.511Z,9.10
2019-02-11T18:21:22.642Z,8.18
2019-02-11T18:23:53.038Z,7.67
2019-02-11T18:26:23.195Z,8.70
2019-02-11T18:28:53.397Z,8.23
2019-02-11T18:31:23.611Z,9.20
2019-02-11T18:33:53.988Z,8.08
2019-02-11T18:36:24.195Z,9.63
2019-02-11T18:38:55.456Z,9.45
2019-02-11T18:41:25.740Z,8.58
2019-02-11T18:43:55.951Z,9.78
2019-02-11T18:46:26.171Z,9.85
2019-02-11T18:48:56.428Z,10.15
2019-02-11T18:51:26.980Z,10.38
2019-02-11T18:53:57.202Z,12.00
2019-02-11T18:56:27.497Z,10.95
2019-02-11T18:58:57.804Z,13.13
2019-02-11T19:01:27.946Z,10.30
2019-02-11T19:03:58.541Z,10.82
2019-02-11T19:06:28.838Z,10.70
2019-02-11T19:08:59.175Z,11.25
2019-02-11T19:11:30.750Z,9.83
2019-02-11T19:14:01.127Z,10.68
2019-02-11T19:16:31.422Z,10.85
2019-02-11T19:19:01.745Z,12.60
2019-02-11T19:21:32.019Z,11.30
2019-02-11T19:24:02.267Z,11.00
2019-02-11T19:26:39.080Z,11.18
2019-02-11T19:29:09.384Z,9.83
2019-02-11T19:31:39.639Z,10.03
2019-02-11T19:34:09.791Z,8.10
2019-02-11T19:36:41.107Z,10.80
2019-02-11T19:39:13.271Z,9.40
2019-02-11T19:41:43.552Z,9.93
2019-02-11T19:44:14.817Z,9.80
2019-02-11T19:46:45.035Z,9.65
2019-02-11T19:49:15.246Z,10.08
2019-02-11T19:51:45.460Z,11.10
2019-02-11T19:54:15.723Z,7.85
2019-02-11T19:56:46.035Z,10.75
2019-02-11T19:59:16.287Z,10.15
2019-02-11T20:01:46.640Z,11.83
2019-02-11T20:04:16.901Z,11.57
2019-02-11T20:06:47.044Z,11.73
2019-02-11T20:09:17.380Z,11.25
2019-02-11T20:11:47.666Z,11.25
2019-02-11T20:14:17.782Z,11.63
2019-02-11T20:16:48.271Z,12.07
2019-02-11T20:19:18.430Z,13.25
2019-02-11T20:21:48.972Z,10.70
2019-02-11T20:24:19.268Z,11.80
2019-02-11T20:26:49.615Z,12.88
2019-02-11T20:29:19.899Z,11.53
2019-02-11T20:31:50.170Z,13.13
2019-02-11T20:34:20.395Z,12.43
2019-02-11T20:36:51.105Z,12.63
2019-02-11T20:39:22.159Z,11.65
2019-02-11T20:41:52.412Z,12.37
2019-02-11T20:44:22.620Z,13.22
2019-02-11T20:46:53.165Z,12.43
2019-02-11T20:49:23.386Z,11.50
2019-02-11T20:51:53.482Z,7.80
2019-02-11T20:54:23.636Z,10.53
2019-02-11T20:56:54.271Z,10.63
2019-02-11T20:59:24.573Z,10.18
2019-02-11T21:01:54.872Z,8.25
2019-02-11T21:04:25.218Z,6.72
2019-02-11T21:06:55.456Z,7.12
2019-02-11T21:09:25.721Z,7.10
2019-02-11T21:11:56.059Z,6.58
2019-02-11T21:14:26.363Z,6.65
2019-02-11T21:16:56.601Z,6.10
2019-02-11T21:19:26.900Z,6.65
2019-02-11T21:21:57.011Z,6.55
2019-02-11T21:24:27.643Z,6.55
2019-02-11T21:26:57.858Z,6.72
2019-02-11T21:29:28.397Z,6.75
2019-02-11T21:31:58.833Z,6.85
2019-02-11T21:34:28.979Z,7.83
2019-02-11T21:36:59.311Z,8.10
2019-02-11T21:39:29.603Z,7.65
2019-02-11T21:41:59.833Z,8.08
2019-02-11T21:44:30.030Z,8.80
2019-02-11T21:47:00.631Z,8.78
2019-02-11T21:49:30.916Z,8.95
2019-02-11T21:52:01.486Z,9.75
2019-02-11T21:54:31.764Z,9.65
2019-02-11T21:57:02.221Z,9.98
2019-02-11T21:59:32.725Z,10.08
2019-02-11T22:02:02.985Z,8.68
2019-02-11T22:04:33.351Z,9.55
2019-02-11T22:07:04.353Z,8.95
2019-02-11T22:09:35.144Z,9.35
2019-02-11T22:12:05.584Z,9.35
2019-02-11T22:14:35.824Z,9.20
2019-02-11T22:17:06.395Z,7.95
2019-02-11T22:19:36.546Z,7.70
2019-02-11T22:22:06.851Z,9.20
2019-02-11T22:24:37.036Z,8.30
2019-02-11T22:27:07.313Z,8.30
2019-02-11T22:29:37.500Z,7.97
2019-02-11T22:32:08.961Z,7.58
2019-02-11T22:34:39.366Z,8.00
2019-02-11T22:37:09.497Z,7.50
2019-02-11T22:39:39.759Z,7.40
2019-02-11T22:42:09.960Z,6.90
2019-02-11T22:44:40.208Z,6.58
2019-02-11T22:47:10.676Z,6.37
2019-02-11T22:49:40.859Z,6.55
2019-02-11T22:52:11.113Z,6.47
2019-02-11T22:54:41.319Z,6.80
2019-02-11T22:57:11.459Z,6.70
2019-02-11T22:59:41.603Z,8.00
2019-02-11T23:02:11.747Z,7.15
2019-02-11T23:04:42.001Z,5.97
2019-02-11T23:07:12.483Z,6.60
2019-02-11T23:09:42.683Z,7.30
2019-02-11T23:12:12.912Z,6.67
2019-02-11T23:14:43.236Z,8.70
2019-02-11T23:17:13.501Z,6.83
2019-02-11T23:19:43.726Z,7.50
2019-02-11T23:22:14.031Z,7.80
2019-02-11T23:24:44.266Z,7.17
2019-02-11T23:27:14.603Z,7.80
2019-02-11T23:29:44.871Z,7.95
2019-02-11T23:32:16.175Z,8.78
2019-02-11T23:34:46.438Z,8.13
2019-02-11T23:37:16.885Z,7.70
2019-02-11T23:39:47.237Z,8.38
2019-02-11T23:42:17.512Z,8.85
2019-02-11T23:44:47.707Z,8.28
2019-02-11T23:47:18.007Z,8.63
2019-02-11T23:49:48.568Z,8.85
2019-02-11T23:52:18.640Z,9.13
2019-02-11T23:54:48.923Z,9.45
2019-02-11T23:57:19.188Z,9.33
2019-02-11T23:59:49.424Z,9.23
